Time;durP1;ratioP1;P1;durP2;ratioP2;P2;SDS_P1;SDS_P2;PMS_P1;PMS_P2;Temp;Humidity;BMP_temperature;BMP_pressure;BME280_temperature;BME280_humidity;BME280_pressure;Samples;Min_cycle;Max_cycle;Signal;HPM_P1;HPM_P2
2021/07/22 00:00:40;;;;;;;10.07;6.07;;;512.80;2201.60;;;;;;5064620;28;20071;-64
2021/07/22 00:03:06;;;;;;;8.98;6.40;;;512.80;2201.60;;;;;;5062846;28;20416;-65
2021/07/22 00:05:31;;;;;;;10.10;6.35;;;512.80;2201.60;;;;;;5046322;28;20062;-65
2021/07/22 00:08:01;;;;;;;11.60;6.22;;;512.80;2201.60;;;;;;5055007;28;20043;-64
2021/07/22 00:10:26;;;;;;;11.05;6.35;;;512.70;2201.60;;;;;;5075757;28;20024;-64
2021/07/22 00:12:52;;;;;;;8.05;6.10;;;512.60;2227.20;;;;;;5075041;28;20362;-64
2021/07/22 00:15:18;;;;;;;10.35;6.55;;;512.50;2227.20;;;;;;5058399;28;20078;-65
2021/07/22 00:17:43;;;;;;;9.75;6.35;;;512.50;2227.20;;;;;;5054686;28;20025;-64
2021/07/22 00:20:10;;;;;;;9.15;6.55;;;512.60;2252.80;;;;;;5054589;28;20025;-64
2021/07/22 00:22:38;;;;;;;10.48;6.75;;;512.50;2227.20;;;;;;5055097;28;20055;-64
2021/07/22 00:25:08;;;;;;;9.48;6.05;;;512.50;2252.80;;;;;;5054660;28;20032;-63
2021/07/22 00:27:35;;;;;;;8.63;6.18;;;512.40;2252.80;;;;;;5058986;28;20028;-63
2021/07/22 00:30:00;;;;;;;10.73;6.80;;;512.40;2252.80;;;;;;5063809;28;20378;-64
2021/07/22 00:32:26;;;;;;;9.82;6.18;;;512.40;2252.80;;;;;;5062247;28;20029;-63
2021/07/22 00:34:52;;;;;;;10.35;6.43;;;512.40;2252.80;;;;;;5062972;28;20071;-63
2021/07/22 00:37:17;;;;;;;10.73;6.60;;;512.30;2252.80;;;;;;5063814;28;20029;-65
2021/07/22 00:39:43;;;;;;;10.95;6.47;;;512.30;2252.80;;;;;;5061960;28;20028;-63
2021/07/22 00:42:09;;;;;;;13.15;6.68;;;512.30;2278.40;;;;;;5063053;28;20053;-64
2021/07/22 00:44:34;;;;;;;10.52;6.65;;;512.30;2278.40;;;;;;5063191;28;20138;-63
2021/07/22 00:47:00;;;;;;;10.15;6.53;;;512.30;2278.40;;;;;;5059531;28;20390;-63
2021/07/22 00:49:26;;;;;;;10.90;6.57;;;512.20;2278.40;;;;;;5054234;28;20049;-65
2021/07/22 00:51:52;;;;;;;8.98;6.40;;;512.20;2278.40;;;;;;5054257;28;20370;-63
2021/07/22 00:54:19;;;;;;;10.75;6.60;;;512.10;2304.00;;;;;;5054388;28;20082;-64
2021/07/22 00:56:44;;;;;;;9.95;6.50;;;512.10;2278.40;;;;;;5054436;28;20025;-64
2021/07/22 00:59:10;;;;;;;10.40;6.45;;;512.10;2304.00;;;;;;5054310;28;20029;-65
2021/07/22 01:01:36;;;;;;;10.60;6.57;;;512.10;2304.00;;;;;;5053582;28;20020;-64
2021/07/22 01:04:01;;;;;;;11.30;6.50;;;512.00;2304.00;;;;;;5053867;28;20025;-65
2021/07/22 01:06:27;;;;;;;10.68;6.82;;;512.00;2304.00;;;;;;5052969;28;20535;-64
2021/07/22 01:08:53;;;;;;;13.95;6.90;;;512.00;2329.60;;;;;;5053411;28;20024;-65
2021/07/22 01:11:19;;;;;;;10.43;6.60;;;487.30;2329.60;;;;;;5054033;28;20378;-65
2021/07/22 01:13:44;;;;;;;11.35;6.47;;;487.30;2329.60;;;;;;5053599;28;20048;-65
2021/07/22 01:16:10;;;;;;;11.23;7.07;;;487.30;2329.60;;;;;;5053853;28;20025;-64
2021/07/22 01:18:36;;;;;;;9.43;6.35;;;487.30;2329.60;;;;;;5053894;28;20489;-65
2021/07/22 01:21:01;;;;;;;10.50;6.72;;;487.30;2329.60;;;;;;5053654;28;20021;-65
2021/07/22 01:23:27;;;;;;;11.15;7.18;;;487.30;2355.20;;;;;;5053672;28;20064;-65
2021/07/22 01:25:53;;;;;;;9.85;6.80;;;487.30;2355.20;;;;;;5053845;28;20104;-65
2021/07/22 01:28:18;;;;;;;11.15;7.20;;;487.20;2355.20;;;;;;5053553;28;20028;-65
2021/07/22 01:30:44;;;;;;;13.10;7.18;;;487.20;2380.80;;;;;;5053896;28;20032;-65
2021/07/22 01:33:10;;;;;;;10.60;7.00;;;487.20;2380.80;;;;;;5053617;28;20033;-64
2021/07/22 01:35:37;;;;;;;10.60;7.30;;;487.20;2380.80;;;;;;5053730;28;20087;-64
2021/07/22 01:38:03;;;;;;;11.00;7.22;;;487.20;2380.80;;;;;;5053781;28;20033;-64
2021/07/22 01:40:29;;;;;;;10.10;6.55;;;487.10;2380.80;;;;;;5053712;28;20067;-66
2021/07/22 01:42:54;;;;;;;12.02;7.15;;;487.10;2380.80;;;;;;5053481;28;20402;-64
2021/07/22 01:45:20;;;;;;;8.95;6.85;;;487.10;2380.80;;;;;;5053587;28;20021;-64
2021/07/22 01:47:46;;;;;;;11.00;7.00;;;487.00;2380.80;;;;;;5053501;28;20036;-65
2021/07/22 01:50:12;;;;;;;11.02;6.93;;;487.00;2380.80;;;;;;5053580;28;20071;-63
2021/07/22 01:52:38;;;;;;;11.73;7.50;;;487.00;2380.80;;;;;;5053166;28;20040;-64
2021/07/22 01:55:04;;;;;;;10.18;6.55;;;487.00;2380.80;;;;;;5053515;28;20032;-64
2021/07/22 01:57:30;;;;;;;8.93;7.03;;;487.00;2380.80;;;;;;5053450;28;20029;-64
2021/07/22 02:00:04;;;;;;;11.05;7.68;;;487.00;2380.80;;;;;;5053071;28;20082;-64
2021/07/22 02:02:30;;;;;;;10.57;7.33;;;487.00;2380.80;;;;;;5053285;28;20060;-64
2021/07/22 02:04:55;;;;;;;11.65;7.70;;;486.90;2380.80;;;;;;5035362;28;20029;-65
2021/07/22 02:07:21;;;;;;;9.57;6.68;;;486.90;2380.80;;;;;;5053106;28;20530;-66
2021/07/22 02:09:47;;;;;;;12.50;7.45;;;486.90;2380.80;;;;;;5053279;28;20469;-64
2021/07/22 02:12:12;;;;;;;12.07;6.60;;;486.90;2380.80;;;;;;5053300;28;20112;-64
2021/07/22 02:14:39;;;;;;;12.45;7.65;;;486.90;2380.80;;;;;;5053100;28;20053;-66
2021/07/22 02:17:04;;;;;;;10.88;7.93;;;486.90;2380.80;;;;;;5054218;28;20021;-66
2021/07/22 02:19:30;;;;;;;11.93;7.18;;;486.90;2380.80;;;;;;5056777;28;20459;-64
2021/07/22 02:21:56;;;;;;;15.02;7.30;;;486.70;2380.80;;;;;;5056596;28;20025;-66
2021/07/22 02:24:21;;;;;;;11.93;7.28;;;486.70;2380.80;;;;;;5057223;28;20462;-66
2021/07/22 02:26:47;;;;;;;10.27;7.55;;;486.70;2380.80;;;;;;5057094;28;20486;-66
2021/07/22 02:29:13;;;;;;;13.52;7.65;;;486.70;2380.80;;;;;;5056094;28;20033;-66
2021/07/22 02:31:38;;;;;;;11.90;7.80;;;486.70;2380.80;;;;;;5056881;28;20103;-67
2021/07/22 02:34:04;;;;;;;12.77;7.95;;;486.70;2380.80;;;;;;5056916;28;20033;-66
2021/07/22 02:36:32;;;;;;;12.70;7.50;;;486.70;2380.80;;;;;;5056595;28;20025;-67
2021/07/22 02:38:57;;;;;;;10.00;7.72;;;486.60;2380.80;;;;;;5057004;28;20047;-66
2021/07/22 02:41:23;;;;;;;10.13;7.75;;;486.60;2380.80;;;;;;5056290;28;20390;-65
2021/07/22 02:43:49;;;;;;;11.77;8.05;;;486.60;2380.80;;;;;;5056865;28;20151;-66
2021/07/22 02:46:15;;;;;;;12.95;8.05;;;486.60;2380.80;;;;;;5056690;28;20090;-67
2021/07/22 02:48:40;;;;;;;10.45;8.05;;;486.50;2380.80;;;;;;5056620;28;20032;-66
2021/07/22 02:51:07;;;;;;;12.00;8.20;;;486.50;2380.80;;;;;;5056381;28;20473;-65
2021/07/22 02:53:35;;;;;;;13.95;8.02;;;486.40;2380.80;;;;;;5070852;28;20071;-66
2021/07/22 02:56:02;;;;;;;12.57;8.35;;;486.40;2380.80;;;;;;5056214;28;20078;-66
2021/07/22 02:58:28;;;;;;;10.93;7.70;;;461.70;2380.80;;;;;;5056630;28;20108;-66
2021/07/22 03:00:54;;;;;;;12.18;7.78;;;461.70;2380.80;;;;;;5056665;28;20025;-66
2021/07/22 03:03:20;;;;;;;12.15;7.65;;;461.70;2380.80;;;;;;5056185;28;20025;-66
2021/07/22 03:05:46;;;;;;;13.32;7.95;;;461.60;2380.80;;;;;;5056262;28;20378;-66
2021/07/22 03:08:12;;;;;;;12.18;7.65;;;461.70;2380.80;;;;;;5055711;28;20392;-66
2021/07/22 03:10:38;;;;;;;13.63;8.07;;;461.60;2380.80;;;;;;5056145;28;20029;-66
2021/07/22 03:13:04;;;;;;;12.25;7.53;;;461.60;2380.80;;;;;;5055861;28;20129;-66
2021/07/22 03:15:30;;;;;;;13.13;7.70;;;461.60;2380.80;;;;;;5056315;28;20393;-66
2021/07/22 03:17:56;;;;;;;12.57;7.93;;;461.60;2380.80;;;;;;5055758;28;20470;-66
2021/07/22 03:20:22;;;;;;;11.40;8.70;;;461.60;2380.80;;;;;;5055955;28;20347;-66
2021/07/22 03:22:48;;;;;;;11.88;8.70;;;461.60;2380.80;;;;;;5055801;28;20048;-66
2021/07/22 03:25:14;;;;;;;14.82;8.57;;;461.60;2380.80;;;;;;5056190;28;20017;-65
2021/07/22 03:27:39;;;;;;;12.52;8.00;;;461.60;2380.80;;;;;;5055705;28;20083;-66
2021/07/22 03:30:06;;;;;;;11.75;8.13;;;461.60;2380.80;;;;;;5054896;28;20029;-65
2021/07/22 03:32:31;;;;;;;15.45;8.32;;;461.60;2380.80;;;;;;5055389;28;20036;-65
2021/07/22 03:34:57;;;;;;;13.70;7.85;;;461.70;2380.80;;;;;;5047388;28;20020;-65
2021/07/22 03:37:23;;;;;;;12.50;7.75;;;461.70;2380.80;;;;;;5055460;28;20037;-67
2021/07/22 03:39:49;;;;;;;13.02;8.10;;;461.70;2380.80;;;;;;5056247;28;20024;-65
2021/07/22 03:42:25;;;;;;;12.63;7.88;;;461.70;2380.80;;;;;;5055182;28;20099;-65
2021/07/22 03:44:52;;;;;;;11.18;7.75;;;461.70;2380.80;;;;;;5055152;28;20087;-66
2021/07/22 03:47:21;;;;;;;12.88;7.85;;;461.70;2380.80;;;;;;5055414;28;20079;-66
2021/07/22 03:49:51;;;;;;;13.73;8.60;;;461.70;2380.80;;;;;;5037734;28;20025;-68
2021/07/22 03:52:22;;;;;;;12.55;7.43;;;461.70;2380.80;;;;;;5055521;28;20363;-66
2021/07/22 03:54:53;;;;;;;14.45;8.32;;;486.80;2380.80;;;;;;5055386;28;20040;-65
2021/07/22 03:57:19;;;;;;;12.52;8.05;;;486.40;2380.80;;;;;;5055672;28;20025;-66
2021/07/22 03:59:45;;;;;;;11.35;7.88;;;486.40;2380.80;;;;;;5037432;28;20119;-65
2021/07/22 04:02:11;;;;;;;11.68;8.32;;;486.40;2380.80;;;;;;5055374;28;20108;-65
2021/07/22 04:04:36;;;;;;;11.25;8.57;;;486.40;2380.80;;;;;;5054947;28;20021;-66
2021/07/22 04:07:02;;;;;;;10.43;7.53;;;486.50;2380.80;;;;;;5055241;28;20021;-66
2021/07/22 04:09:28;;;;;;;12.80;8.07;;;486.50;2380.80;;;;;;5054516;28;20021;-66
2021/07/22 04:11:53;;;;;;;12.02;7.47;;;486.50;2380.80;;;;;;5054445;28;20082;-66
2021/07/22 04:14:19;;;;;;;11.63;7.60;;;486.60;2380.80;;;;;;5054789;28;20049;-67
2021/07/22 04:16:45;;;;;;;11.63;7.68;;;486.60;2380.80;;;;;;5054725;28;20474;-67
2021/07/22 04:19:11;;;;;;;12.63;7.43;;;486.70;2380.80;;;;;;5054867;28;20029;-66
2021/07/22 04:21:37;;;;;;;14.25;7.70;;;486.70;2380.80;;;;;;5054525;28;20023;-66
2021/07/22 04:24:02;;;;;;;12.93;6.93;;;486.70;2380.80;;;;;;5055079;28;20029;-66
2021/07/22 04:26:28;;;;;;;12.20;7.40;;;486.90;2380.80;;;;;;5055120;28;20033;-66
2021/07/22 04:28:54;;;;;;;11.68;7.20;;;486.90;2380.80;;;;;;5054703;28;20017;-66
2021/07/22 04:31:19;;;;;;;12.35;7.25;;;487.00;2380.80;;;;;;5054667;28;20025;-66
2021/07/22 04:33:48;;;;;;;9.93;7.32;;;487.00;2380.80;;;;;;5055020;28;20064;-65
2021/07/22 04:36:15;;;;;;;10.45;7.07;;;487.00;2380.80;;;;;;5055011;28;20033;-66
2021/07/22 04:38:41;;;;;;;11.10;7.20;;;487.00;2380.80;;;;;;5054943;28;20021;-66
2021/07/22 04:41:07;;;;;;;11.23;7.30;;;487.10;2380.80;;;;;;5054577;28;20350;-65
2021/07/22 04:43:33;;;;;;;10.18;7.18;;;487.10;2380.80;;;;;;5054510;28;20112;-65
2021/07/22 04:46:03;;;;;;;11.43;7.28;;;487.20;2380.80;;;;;;5054420;28;20048;-66
2021/07/22 04:48:30;;;;;;;11.32;7.05;;;487.20;2380.80;;;;;;5036255;28;20070;-65
2021/07/22 04:50:56;;;;;;;10.40;6.88;;;487.30;2355.20;;;;;;5054098;28;20382;-65
2021/07/22 04:53:21;;;;;;;10.80;7.43;;;512.00;2355.20;;;;;;5054244;28;20037;-65
2021/07/22 04:55:47;;;;;;;11.73;7.38;;;512.10;2355.20;;;;;;5054346;28;20531;-65
2021/07/22 04:58:13;;;;;;;10.18;6.90;;;512.20;2304.00;;;;;;5054327;28;20029;-66
2021/07/22 05:00:38;;;;;;;9.45;6.65;;;512.20;2304.00;;;;;;5054151;28;20343;-65
2021/07/22 05:03:04;;;;;;;11.25;6.72;;;512.30;2304.00;;;;;;5036091;28;20055;-66
2021/07/22 05:05:30;;;;;;;11.73;6.70;;;512.30;2278.40;;;;;;5053491;28;20025;-66
2021/07/22 05:07:59;;;;;;;9.57;6.20;;;512.40;2278.40;;;;;;5053846;28;20040;-65
2021/07/22 05:10:24;;;;;;;11.98;6.20;;;512.50;2278.40;;;;;;5054041;28;20021;-65
2021/07/22 05:12:58;;;;;;;9.80;6.30;;;512.50;2278.40;;;;;;5053694;28;20033;-66
2021/07/22 05:15:24;;;;;;;13.20;6.45;;;512.50;2278.40;;;;;;5053593;28;20112;-66
2021/07/22 05:17:50;;;;;;;8.52;5.97;;;512.60;2278.40;;;;;;5053456;28;20117;-66
2021/07/22 05:20:15;;;;;;;10.68;6.10;;;512.70;2278.40;;;;;;5053747;28;20478;-66
2021/07/22 05:22:41;;;;;;;9.57;6.88;;;512.80;2304.00;;;;;;5063076;28;20056;-66
2021/07/22 05:25:07;;;;;;;9.73;6.70;;;512.80;2329.60;;;;;;5074102;28;20040;-65
2021/07/22 05:27:33;;;;;;;11.25;6.28;;;512.90;2329.60;;;;;;5073809;28;20024;-65
2021/07/22 05:29:59;;;;;;;11.75;6.80;;;512.90;2304.00;;;;;;5074069;28;20527;-65
2021/07/22 05:32:24;;;;;;;9.38;6.93;;;537.60;2304.00;;;;;;5088728;28;20055;-65
2021/07/22 05:34:50;;;;;;;8.27;6.10;;;537.70;2329.60;;;;;;5073015;28;20020;-65
2021/07/22 05:37:16;;;;;;;9.27;6.57;;;537.70;2304.00;;;;;;5073627;28;20024;-66
2021/07/22 05:39:42;;;;;;;12.50;6.40;;;537.80;2304.00;;;;;;5073555;28;20073;-65
2021/07/22 05:42:07;;;;;;;12.15;6.80;;;537.90;2304.00;;;;;;5073466;28;20024;-65
2021/07/22 05:44:33;;;;;;;11.93;7.00;;;537.90;2304.00;;;;;;5073423;28;20035;-65
2021/07/22 05:46:59;;;;;;;11.55;6.45;;;538.00;2304.00;;;;;;5073674;28;20300;-66
2021/07/22 05:49:24;;;;;;;8.70;6.43;;;538.10;2252.80;;;;;;5073091;28;20420;-65
2021/07/22 05:51:50;;;;;;;10.90;6.38;;;538.30;2227.20;;;;;;5073804;28;20462;-66
2021/07/22 05:54:16;;;;;;;10.15;6.30;;;538.30;2252.80;;;;;;5077731;28;20040;-66
2021/07/22 05:56:41;;;;;;;9.20;6.50;;;538.30;2227.20;;;;;;5077542;28;20485;-65
2021/07/22 05:59:07;;;;;;;9.27;6.30;;;538.50;2227.20;;;;;;5077841;28;20037;-66
2021/07/22 06:01:33;;;;;;;9.48;6.10;;;538.50;2201.60;;;;;;5077195;28;20116;-65
2021/07/22 06:03:58;;;;;;;9.13;5.90;;;563.20;2227.20;;;;;;5077339;28;20024;-65
2021/07/22 06:06:24;;;;;;;8.88;6.30;;;563.30;2176.00;;;;;;5077243;28;20033;-65
2021/07/22 06:08:50;;;;;;;11.25;6.57;;;563.40;2201.60;;;;;;5077619;28;20546;-65
2021/07/22 06:11:16;;;;;;;11.88;6.40;;;563.50;2176.00;;;;;;5077880;28;20036;-66
2021/07/22 06:13:42;;;;;;;13.82;6.75;;;563.60;2150.40;;;;;;5077283;28;20493;-65
2021/07/22 06:16:10;;;;;;;9.15;5.88;;;563.60;2176.00;;;;;;5077058;28;20032;-66
2021/07/22 06:18:36;;;;;;;9.52;5.70;;;563.70;2124.80;;;;;;5077087;28;20024;-66
2021/07/22 06:21:02;;;;;;;10.48;6.18;;;563.70;2099.20;;;;;;5077355;28;20039;-65
2021/07/22 06:23:28;;;;;;;9.57;6.20;;;564.00;2124.80;;;;;;5077237;28;20369;-66
2021/07/22 06:25:57;;;;;;;9.38;6.22;;;564.00;2073.60;;;;;;5077387;28;20480;-65
2021/07/22 06:28:23;;;;;;;8.88;5.90;;;564.10;2073.60;;;;;;5058263;28;20056;-64
2021/07/22 06:30:50;;;;;;;9.43;5.95;;;588.80;2073.60;;;;;;5077189;28;20111;-65
2021/07/22 06:33:16;;;;;;;10.05;5.95;;;588.90;2073.60;;;;;;5076639;28;20492;-64
2021/07/22 06:35:42;;;;;;;9.35;5.95;;;589.00;2073.60;;;;;;5077036;28;20032;-65
2021/07/22 06:38:07;;;;;;;8.15;6.00;;;589.00;2099.20;;;;;;5076322;28;20380;-65
2021/07/22 06:40:34;;;;;;;12.07;6.43;;;589.10;2048.00;;;;;;5076934;28;20020;-65
2021/07/22 06:43:00;;;;;;;9.00;6.30;;;589.20;2048.00;;;;;;5076720;28;20027;-65
2021/07/22 06:45:26;;;;;;;11.07;6.00;;;589.30;2022.40;;;;;;5076799;28;20024;-65
2021/07/22 06:47:52;;;;;;;10.32;5.97;;;589.40;2048.00;;;;;;5067793;28;20485;-65
2021/07/22 06:50:17;;;;;;;10.65;6.40;;;589.50;2022.40;;;;;;5056332;28;20040;-65
2021/07/22 06:52:43;;;;;;;11.13;6.18;;;589.60;1996.80;;;;;;5071723;28;20040;-65
2021/07/22 06:55:09;;;;;;;8.63;5.95;;;589.70;1920.00;;;;;;5056659;28;20413;-66
2021/07/22 06:57:35;;;;;;;12.02;6.28;;;614.40;1971.20;;;;;;5056341;28;20033;-65
2021/07/22 07:00:02;;;;;;;9.80;6.30;;;614.40;1920.00;;;;;;5056508;28;20066;-65
2021/07/22 07:02:28;;;;;;;10.27;6.30;;;614.50;1920.00;;;;;;5056342;28;20029;-65
2021/07/22 08:00:34;;;;;;;13.13;5.75;;;640.50;1792.00;;;;;;5070873;28;20383;-60
2021/07/22 08:02:59;;;;;;;9.13;5.70;;;666.20;1612.80;;;;;;5070501;28;20048;-65
2021/07/22 08:05:26;;;;;;;11.25;6.22;;;666.30;1587.20;;;;;;5070523;28;20421;-61
2021/07/22 08:07:52;;;;;;;10.52;6.70;;;666.40;1638.40;;;;;;5070986;28;20104;-65
2021/07/22 08:10:17;;;;;;;23.38;14.23;;;666.30;1664.00;;;;;;5070981;28;20108;-61
2021/07/22 08:12:43;;;;;;;9.65;6.05;;;666.50;1689.60;;;;;;5070715;28;20028;-62
2021/07/22 08:15:10;;;;;;;10.55;5.97;;;666.10;1664.00;;;;;;5070545;28;20025;-59
2021/07/22 08:17:36;;;;;;;11.27;5.90;;;666.40;1664.00;;;;;;5070471;28;20033;-64
2021/07/22 08:20:06;;;;;;;9.52;6.22;;;666.50;1612.80;;;;;;5070311;28;20033;-64
2021/07/22 08:22:33;;;;;;;9.63;5.88;;;665.90;1689.60;;;;;;5070492;28;20067;-61
2021/07/22 08:24:59;;;;;;;9.27;5.53;;;640.90;1689.60;;;;;;5052121;28;20063;-62
2021/07/22 08:27:30;;;;;;;8.48;5.82;;;665.60;1689.60;;;;;;5070411;28;20077;-69
2021/07/22 08:29:56;;;;;;;6.90;4.95;;;665.90;1536.00;;;;;;5069959;28;20052;-66
2021/07/22 08:32:22;;;;;;;10.00;5.55;;;666.20;1536.00;;;;;;5070128;28;20036;-68
2021/07/22 08:34:48;;;;;;;9.55;5.40;;;666.40;1536.00;;;;;;5070248;28;20025;-72
2021/07/22 08:37:15;;;;;;;10.55;5.47;;;691.20;1459.20;;;;;;5070171;28;20021;-71
2021/07/22 08:39:42;;;;;;;10.57;5.05;;;691.40;1433.60;;;;;;5069665;28;20119;-67
2021/07/22 08:42:09;;;;;;;8.90;5.15;;;691.60;1382.40;;;;;;5069999;28;20032;-62
2021/07/22 08:44:36;;;;;;;7.10;5.05;;;691.70;1382.40;;;;;;5055570;28;20482;-65
2021/07/22 08:47:05;;;;;;;7.45;4.75;;;691.80;1305.60;;;;;;5056484;28;20029;-69
2021/07/22 08:49:33;;;;;;;11.35;5.70;;;691.80;1331.20;;;;;;5053122;28;20049;-69
2021/07/22 08:52:00;;;;;;;10.38;5.40;;;692.10;1382.40;;;;;;5056456;28;20136;-69
2021/07/22 08:54:26;;;;;;;9.10;5.00;;;716.80;1408.00;;;;;;5053309;28;20055;-68
2021/07/22 08:56:54;;;;;;;7.25;5.10;;;717.00;1408.00;;;;;;5056368;28;20028;-69
2021/07/22 08:59:23;;;;;;;7.40;4.80;;;717.20;1382.40;;;;;;5053025;28;20075;-68
2021/07/22 09:01:51;;;;;;;6.78;4.80;;;717.60;1382.40;;;;;;5044344;28;20025;-67
2021/07/22 09:04:17;;;;;;;8.60;4.70;;;717.70;1331.20;;;;;;5042583;28;20025;-66
2021/07/22 09:06:42;;;;;;;7.32;5.28;;;717.40;1331.20;;;;;;5043790;28;20021;-72
2021/07/22 09:09:16;;;;;;;8.00;5.18;;;717.50;1331.20;;;;;;5042074;28;20142;-63
2021/07/22 09:12:00;;;;;;;8.05;4.80;;;717.60;1356.80;;;;;;5042610;28;20047;-65
2021/07/22 09:14:28;;;;;;;8.52;4.80;;;742.40;1280.00;;;;;;5042625;28;20049;-67
2021/07/22 09:16:55;;;;;;;9.70;4.68;;;742.50;1280.00;;;;;;5043917;28;20053;-65
2021/07/22 09:19:40;;;;;;;9.98;4.78;;;717.70;1280.00;;;;;;5042852;28;20450;-64
2021/07/22 09:22:08;;;;;;;6.03;4.90;;;717.70;1305.60;;;;;;5043083;28;20025;-63
2021/07/22 09:24:51;;;;;;;9.57;4.90;;;717.50;1305.60;;;;;;5041862;28;20075;-64
2021/07/22 09:27:33;;;;;;;7.43;4.80;;;717.60;1305.60;;;;;;5045144;28;20031;-61
2021/07/22 09:30:00;;;;;;;10.63;4.68;;;742.40;1356.80;;;;;;5041870;28;20056;-61
2021/07/22 09:32:33;;;;;;;7.95;4.80;;;742.40;1280.00;;;;;;5024979;28;20381;-60
2021/07/22 09:35:16;;;;;;;8.18;4.90;;;742.50;1305.60;;;;;;5041844;28;20033;-63
2021/07/22 09:37:49;;;;;;;7.07;4.55;;;742.90;1305.60;;;;;;5041382;28;20030;-61
2021/07/22 09:40:17;;;;;;;5.10;4.35;;;717.70;1254.40;;;;;;5039717;28;20029;-62
2021/07/22 09:42:48;;;;;;;6.47;4.50;;;717.40;1254.40;;;;;;5042338;28;20014;-60
2021/07/22 09:45:19;;;;;;;6.45;4.70;;;717.70;1280.00;;;;;;5044074;28;20036;-61
2021/07/22 09:47:46;;;;;;;6.10;4.50;;;717.40;1280.00;;;;;;5036941;28;20038;-61
2021/07/22 09:50:25;;;;;;;6.95;4.95;;;742.40;1331.20;;;;;;5054353;28;20370;-63
2021/07/22 09:53:11;;;;;;;8.90;4.88;;;742.60;1305.60;;;;;;5034131;28;20025;-63
2021/07/22 09:55:38;;;;;;;7.45;5.18;;;742.90;1382.40;;;;;;5033219;28;20191;-61
2021/07/22 09:58:08;;;;;;;8.95;4.10;;;743.30;1305.60;;;;;;5033542;28;20037;-65
2021/07/22 10:00:37;;;;;;;6.95;4.70;;;743.00;1203.20;;;;;;5014626;28;20402;-61
2021/07/22 10:03:06;;;;;;;7.88;4.43;;;743.00;1254.40;;;;;;5013955;28;20041;-63
2021/07/22 10:05:43;;;;;;;7.10;4.93;;;743.10;1280.00;;;;;;5013753;28;20029;-62
2021/07/22 10:08:09;;;;;;;8.13;4.70;;;743.20;1254.40;;;;;;5014250;28;20037;-62
2021/07/22 10:10:37;;;;;;;7.30;4.45;;;768.10;1228.80;;;;;;5013543;28;20025;-62
2021/07/22 10:13:03;;;;;;;6.93;4.70;;;768.20;1228.80;;;;;;5015408;28;20037;-60
2021/07/22 10:15:32;;;;;;;7.22;4.53;;;768.10;1254.40;;;;;;5039233;28;20029;-62
2021/07/22 10:17:59;;;;;;;8.70;4.68;;;768.20;1228.80;;;;;;5020485;28;20092;-62
2021/07/22 10:20:31;;;;;;;7.25;4.65;;;768.30;1228.80;;;;;;5014988;28;20723;-60
2021/07/22 10:22:58;;;;;;;8.73;4.78;;;768.30;1254.40;;;;;;5020299;28;20364;-63
2021/07/22 10:25:24;;;;;;;8.93;5.22;;;768.50;1254.40;;;;;;5040281;28;20037;-63
2021/07/22 10:27:53;;;;;;;6.80;4.63;;;768.30;1228.80;;;;;;4995265;28;20068;-60
2021/07/22 10:30:21;;;;;;;9.35;4.60;;;768.30;1203.20;;;;;;5022519;28;20029;-60
2021/07/22 10:33:05;;;;;;;5.00;4.50;;;768.60;1254.40;;;;;;5023316;28;20077;-60
2021/07/22 10:35:32;;;;;;;7.32;4.57;;;768.50;1203.20;;;;;;5022803;28;20053;-62
2021/07/22 10:38:28;;;;;;;8.38;4.57;;;768.50;1254.40;;;;;;5021821;28;20025;-63
2021/07/22 10:41:03;;;;;;;8.93;4.63;;;793.60;1228.80;;;;;;5023580;28;20076;-64
2021/07/22 10:43:38;;;;;;;6.10;4.35;;;793.70;1203.20;;;;;;5022772;28;20025;-66
2021/07/22 10:46:05;;;;;;;8.38;4.72;;;794.10;1203.20;;;;;;5022938;28;20025;-63
2021/07/22 10:48:31;;;;;;;7.35;5.13;;;768.70;1177.60;;;;;;5024494;28;20044;-64
2021/07/22 10:50:57;;;;;;;5.82;4.40;;;768.70;1152.00;;;;;;5023475;28;20022;-64
2021/07/22 10:53:54;;;;;;;5.50;4.43;;;768.80;1152.00;;;;;;5023295;28;20105;-68
2021/07/22 10:56:22;;;;;;;7.13;4.85;;;768.90;1100.80;;;;;;5023819;28;20042;-63
2021/07/22 10:58:51;;;;;;;6.68;4.82;;;793.80;1152.00;;;;;;5023976;28;20025;-66
2021/07/22 11:01:42;;;;;;;7.60;4.95;;;794.00;1177.60;;;;;;5041348;28;20053;-65
2021/07/22 11:04:12;;;;;;;7.50;4.78;;;794.30;1152.00;;;;;;5033178;28;20029;-66
2021/07/22 11:06:59;;;;;;;6.68;5.13;;;819.40;1126.40;;;;;;5046519;28;20486;-64
2021/07/22 11:09:54;;;;;;;6.57;4.30;;;793.90;1126.40;;;;;;5046695;28;20029;-61
2021/07/22 11:12:39;;;;;;;7.05;4.60;;;794.10;1177.60;;;;;;5043585;28;20379;-61
2021/07/22 11:15:07;;;;;;;5.68;4.60;;;794.10;1177.60;;;;;;5041009;28;20017;-64
2021/07/22 11:17:33;;;;;;;7.95;4.53;;;794.40;1126.40;;;;;;5016156;28;20446;-63
2021/07/22 11:20:18;;;;;;;6.55;4.85;;;819.20;1177.60;;;;;;5032864;28;20091;-62
2021/07/22 11:22:47;;;;;;;;;;;819.20;1100.80;;;;;;5036303;28;20108;-66
2021/07/22 11:25:14;;;;;;;6.32;4.40;;;794.40;1100.80;;;;;;5043874;28;19909;-65
2021/07/22 11:27:44;;;;;;;6.57;4.63;;;819.20;1152.00;;;;;;5041914;28;20067;-63
2021/07/22 11:30:17;;;;;;;6.40;5.00;;;794.30;1100.80;;;;;;5042030;28;20094;-67
2021/07/22 11:32:43;;;;;;;7.40;4.75;;;794.40;1126.40;;;;;;5038135;28;20028;-67
2021/07/22 11:35:10;;;;;;;6.30;4.97;;;794.40;1100.80;;;;;;5039980;28;20066;-67
2021/07/22 11:37:36;;;;;;;6.57;4.45;;;819.20;1100.80;;;;;;5034696;28;20061;-66
2021/07/22 11:40:13;;;;;;;5.68;4.53;;;794.40;1075.20;;;;;;5032947;28;20379;-66
2021/07/22 11:42:49;;;;;;;6.65;4.60;;;794.40;1075.20;;;;;;5038468;28;20040;-70
2021/07/22 11:45:15;;;;;;;7.50;4.30;;;794.50;1075.20;;;;;;5045881;28;20029;-70
2021/07/22 11:47:41;;;;;;;6.45;4.80;;;819.30;1152.00;;;;;;5033142;28;20493;-61
2021/07/22 11:50:07;;;;;;;6.75;4.60;;;794.20;1049.60;;;;;;5032652;28;20425;-63
2021/07/22 11:52:34;;;;;;;7.72;4.70;;;794.30;1075.20;;;;;;5032872;28;20080;-64
2021/07/22 11:55:03;;;;;;;8.32;4.97;;;793.90;1100.80;;;;;;5032597;28;20465;-61
2021/07/22 11:57:35;;;;;;;8.70;4.90;;;793.80;1152.00;;;;;;5033012;28;20550;-62
2021/07/22 12:00:18;;;;;;;9.57;5.22;;;793.90;1126.40;;;;;;5061153;28;20072;-64
2021/07/22 12:02:48;;;;;;;6.60;4.97;;;793.80;1126.40;;;;;;5072525;28;20552;-62
2021/07/22 12:05:14;;;;;;;7.93;5.47;;;793.70;1126.40;;;;;;5072756;28;20445;-64
2021/07/22 12:07:40;;;;;;;7.50;5.20;;;794.30;1100.80;;;;;;5065586;28;20049;-61
2021/07/22 12:10:06;;;;;;;7.25;5.10;;;819.20;1126.40;;;;;;5072554;28;20040;-61
2021/07/22 12:12:32;;;;;;;6.43;4.63;;;794.50;1075.20;;;;;;5072599;28;20409;-63
2021/07/22 12:15:09;;;;;;;7.32;4.80;;;819.30;1126.40;;;;;;5072552;28;20032;-63
2021/07/22 12:17:37;;;;;;;7.05;5.00;;;819.50;1075.20;;;;;;5072987;28;20051;-63
2021/07/22 12:20:04;;;;;;;6.35;5.32;;;819.20;1049.60;;;;;;5072100;28;20070;-60
2021/07/22 12:22:32;;;;;;;8.20;5.55;;;819.60;1049.60;;;;;;5054857;28;20111;-61
2021/07/22 12:25:01;;;;;;;8.45;4.88;;;819.80;1049.60;;;;;;5073190;28;20024;-62
2021/07/22 12:27:34;;;;;;;6.63;5.30;;;820.00;1100.80;;;;;;5072968;28;20124;-64
2021/07/22 12:30:13;;;;;;;8.55;5.25;;;819.80;1024.00;;;;;;5072327;28;20036;-66
2021/07/22 12:32:58;;;;;;;5.78;4.93;;;819.80;1075.20;;;;;;5073114;28;20024;-62
2021/07/22 12:35:40;;;;;;;6.60;5.40;;;819.20;1075.20;;;;;;5073857;28;20024;-61
2021/07/22 12:38:08;;;;;;;7.35;5.38;;;819.40;1075.20;;;;;;5076237;28;20425;-61
2021/07/22 12:40:56;;;;;;;6.45;5.00;;;819.20;1100.80;;;;;;5076546;28;20027;-62
2021/07/22 12:43:24;;;;;;;7.85;5.10;;;819.30;1075.20;;;;;;5076627;28;20448;-61
2021/07/22 12:45:54;;;;;;;5.70;4.78;;;819.50;1075.20;;;;;;5076300;28;20024;-62
2021/07/22 12:48:38;;;;;;;7.65;5.03;;;819.50;1049.60;;;;;;5076202;28;20039;-60
2021/07/22 12:51:15;;;;;;;6.50;5.30;;;819.60;1075.20;;;;;;5076183;28;20496;-70
2021/07/22 12:53:41;;;;;;;7.57;5.38;;;819.90;1075.20;;;;;;5060940;28;20032;-63
2021/07/22 12:56:08;;;;;;;8.63;5.35;;;819.40;1049.60;;;;;;5036044;28;20487;-62
2021/07/22 12:58:37;;;;;;;7.45;5.10;;;819.30;1100.80;;;;;;5018260;28;20458;-64
2021/07/22 13:01:06;;;;;;;8.35;5.30;;;819.50;1024.00;;;;;;5035993;28;20113;-64
2021/07/22 13:03:38;;;;;;;8.15;5.55;;;819.40;1049.60;;;;;;5036080;28;20041;-61
2021/07/22 13:06:04;;;;;;;6.35;5.18;;;794.50;1075.20;;;;;;5035679;28;20080;-61
2021/07/22 13:08:30;;;;;;;6.68;5.20;;;794.30;1100.80;;;;;;5036229;28;20033;-62
2021/07/22 13:10:57;;;;;;;6.90;5.03;;;794.20;1075.20;;;;;;5036042;28;20460;-64
2021/07/22 13:13:23;;;;;;;6.53;5.18;;;794.40;1049.60;;;;;;5035947;28;20032;-61